Time;durP1;ratioP1;P1;durP2;ratioP2;P2;SDS_P1;SDS_P2;PMS_P1;PMS_P2;Temp;Humidity;BMP_temperature;BMP_pressure;BME280_temperature;BME280_humidity;BME280_pressure;Samples;Min_cycle;Max_cycle;Signal;HPM_P1;HPM_P2
2022/11/03 00:01:41;;;;;;;23.33;4.47;;;;;;;;;;5094387;28;20135;-65
2022/11/03 00:04:10;;;;;;;18.00;4.20;;;;;;;;;;5094622;28;20093;-65
2022/11/03 00:06:36;;;;;;;19.38;4.63;;;;;;;;;;5094304;28;20180;-65
2022/11/03 00:09:03;;;;;;;18.05;4.95;;;;;;;;;;5094224;28;20113;-67
2022/11/03 00:11:31;;;;;;;22.35;5.15;;;;;;;;;;5094655;28;20044;-67
2022/11/03 00:13:57;;;;;;;16.25;3.85;;;;;;;;;;5094348;28;20191;-65
2022/11/03 00:16:23;;;;;;;18.70;4.60;;;;;;;;;;5094142;28;20044;-65
2022/11/03 00:18:50;;;;;;;18.17;4.75;;;;;;;;;;5094050;28;20047;-65
2022/11/03 00:21:16;;;;;;;15.32;4.60;;;;;;;;;;5094171;28;20437;-69
2022/11/03 00:23:43;;;;;;;22.40;4.22;;;;;;;;;;5094472;28;20552;-65
2022/11/03 00:26:12;;;;;;;19.40;4.47;;;;;;;;;;5093888;28;20510;-67
2022/11/03 00:28:39;;;;;;;19.15;4.47;;;;;;;;;;5092593;28;20461;-66
2022/11/03 00:31:07;;;;;;;25.60;5.05;;;;;;;;;;5093878;28;20040;-65
2022/11/03 00:33:33;;;;;;;19.58;5.07;;;;;;;;;;5093818;28;20048;-67
2022/11/03 00:36:00;;;;;;;24.85;4.68;;;;;;;;;;5093669;28;20054;-65
2022/11/03 00:38:27;;;;;;;19.90;4.38;;;;;;;;;;5092634;28;20048;-64
2022/11/03 00:41:00;;;;;;;28.63;4.82;;;;;;;;;;5093629;28;20376;-64
2022/11/03 00:43:27;;;;;;;18.50;3.70;;;;;;;;;;5093667;28;20056;-66
2022/11/03 00:45:53;;;;;;;16.85;4.35;;;;;;;;;;5092713;28;20082;-67
2022/11/03 00:48:28;;;;;;;19.85;4.20;;;;;;;;;;5093651;28;20044;-64
2022/11/03 00:51:10;;;;;;;20.58;4.57;;;;;;;;;;5092894;28;20084;-66
2022/11/03 00:53:38;;;;;;;21.92;4.70;;;;;;;;;;5093609;28;20102;-66
2022/11/03 00:56:04;;;;;;;19.33;4.65;;;;;;;;;;5093556;28;20052;-66
2022/11/03 00:58:30;;;;;;;19.30;4.90;;;;;;;;;;5093604;28;20105;-65
2022/11/03 01:01:06;;;;;;;15.48;4.22;;;;;;;;;;5093354;28;20044;-67
2022/11/03 01:03:32;;;;;;;22.95;4.78;;;;;;;;;;5093876;28;20139;-65
2022/11/03 01:08:43;;;;;;;18.90;4.35;;;;;;;;;;5093472;28;19927;-64
2022/11/03 01:13:55;;;;;;;18.85;4.13;;;;;;;;;;5093354;28;20070;-66
2022/11/03 01:16:21;;;;;;;19.48;5.28;;;;;;;;;;5093428;28;20131;-65
2022/11/03 01:18:48;;;;;;;19.42;4.78;;;;;;;;;;5093056;28;20480;-64
2022/11/03 01:21:14;;;;;;;23.52;4.43;;;;;;;;;;5093442;28;20466;-66
2022/11/03 01:23:40;;;;;;;19.23;4.80;;;;;;;;;;5094100;28;20044;-66
2022/11/03 01:26:07;;;;;;;25.33;5.22;;;;;;;;;;5093242;28;20131;-66
2022/11/03 01:28:34;;;;;;;21.45;4.43;;;;;;;;;;5093817;28;20051;-65
2022/11/03 01:31:11;;;;;;;26.10;4.75;;;;;;;;;;5092056;28;20040;-63
2022/11/03 01:33:37;;;;;;;21.08;4.47;;;;;;;;;;5093259;28;20055;-63
2022/11/03 01:36:04;;;;;;;17.98;4.90;;;;;;;;;;5093405;28;20079;-66
2022/11/03 01:38:36;;;;;;;21.13;5.22;;;;;;;;;;5093161;28;20051;-66
2022/11/03 01:41:03;;;;;;;19.65;4.53;;;;;;;;;;5097300;28;20419;-65
2022/11/03 01:43:31;;;;;;;18.73;4.60;;;;;;;;;;5097319;28;20092;-65
2022/11/03 01:46:08;;;;;;;20.30;4.50;;;;;;;;;;5096630;28;20052;-69
2022/11/03 01:48:35;;;;;;;18.27;4.53;;;;;;;;;;5097556;28;20059;-65
2022/11/03 01:51:02;;;;;;;18.20;4.35;;;;;;;;;;5096790;28;20036;-66
2022/11/03 01:53:29;;;;;;;22.48;4.68;;;;;;;;;;5096831;28;20054;-65
2022/11/03 01:55:56;;;;;;;16.88;4.50;;;;;;;;;;5096786;28;20048;-66
2022/11/03 01:58:26;;;;;;;24.42;4.82;;;;;;;;;;5096660;28;20047;-68
2022/11/03 02:00:54;;;;;;;19.77;4.43;;;;;;;;;;5097250;28;20052;-67
2022/11/03 02:03:21;;;;;;;19.85;4.53;;;;;;;;;;5096604;28;20161;-66
2022/11/03 02:05:48;;;;;;;22.60;4.93;;;;;;;;;;5096533;28;20062;-66
2022/11/03 02:08:21;;;;;;;21.85;4.63;;;;;;;;;;5096465;28;20044;-67
2022/11/03 02:10:48;;;;;;;22.00;4.68;;;;;;;;;;5096556;28;20101;-66
2022/11/03 02:13:19;;;;;;;22.52;4.35;;;;;;;;;;5096340;28;20096;-66
2022/11/03 02:15:46;;;;;;;20.20;4.65;;;;;;;;;;5096508;28;20055;-65
2022/11/03 02:18:12;;;;;;;20.13;5.55;;;;;;;;;;5096540;28;20090;-67
2022/11/03 02:20:40;;;;;;;17.30;3.97;;;;;;;;;;5095148;28;20047;-67
2022/11/03 02:23:15;;;;;;;22.08;4.45;;;;;;;;;;5096253;28;20048;-64
2022/11/03 02:25:47;;;;;;;21.77;4.57;;;;;;;;;;5096314;28;20055;-67
2022/11/03 02:28:15;;;;;;;18.55;5.35;;;;;;;;;;5096116;28;20048;-66
2022/11/03 02:30:49;;;;;;;19.63;4.80;;;;;;;;;;5096074;28;20047;-65
2022/11/03 02:33:20;;;;;;;26.35;4.75;;;;;;;;;;5096344;28;20087;-67
2022/11/03 02:35:50;;;;;;;22.13;5.03;;;;;;;;;;5096065;28;20495;-66
2022/11/03 02:38:16;;;;;;;17.05;4.90;;;;;;;;;;5095534;28;20500;-66
2022/11/03 02:40:45;;;;;;;20.90;4.25;;;;;;;;;;5095461;28;20388;-67
2022/11/03 02:43:11;;;;;;;16.02;4.22;;;;;;;;;;5095992;28;20098;-66
2022/11/03 02:45:38;;;;;;;21.33;4.70;;;;;;;;;;5095402;28;20060;-65
2022/11/03 02:48:05;;;;;;;22.23;4.78;;;;;;;;;;5095756;28;20043;-71
2022/11/03 02:50:32;;;;;;;22.02;4.68;;;;;;;;;;5095885;28;20075;-66
2022/11/03 02:52:58;;;;;;;24.80;4.50;;;;;;;;;;5094492;28;20044;-66
2022/11/03 02:55:38;;;;;;;17.48;4.20;;;;;;;;;;5096413;28;20419;-64
2022/11/03 02:58:14;;;;;;;20.92;4.47;;;;;;;;;;5095620;28;20044;-66
2022/11/03 03:01:03;;;;;;;23.42;5.15;;;;;;;;;;5096072;28;20044;-67
2022/11/03 03:03:38;;;;;;;17.10;4.05;;;;;;;;;;5092183;28;20055;-66
2022/11/03 03:06:08;;;;;;;21.88;5.47;;;;;;;;;;5095415;28;20048;-67
2022/11/03 03:08:35;;;;;;;21.65;5.28;;;;;;;;;;5095414;28;20048;-66
2022/11/03 03:11:04;;;;;;;17.75;4.43;;;;;;;;;;5095338;28;20161;-64
2022/11/03 03:13:30;;;;;;;18.95;4.88;;;;;;;;;;5077312;28;20052;-65
2022/11/03 03:16:05;;;;;;;22.15;5.05;;;;;;;;;;5095568;28;20047;-65
2022/11/03 03:18:43;;;;;;;19.60;4.95;;;;;;;;;;5095724;28;20051;-68
2022/11/03 03:21:15;;;;;;;17.80;4.50;;;;;;;;;;5093879;28;20048;-65
2022/11/03 03:23:48;;;;;;;19.98;4.75;;;;;;;;;;5095075;28;20124;-67
2022/11/03 03:26:19;;;;;;;18.38;4.75;;;;;;;;;;5094992;28;20055;-65
2022/11/03 03:28:49;;;;;;;24.48;4.90;;;;;;;;;;5095330;28;20051;-62
2022/11/03 03:31:17;;;;;;;16.70;4.53;;;;;;;;;;5095699;28;20040;-65
2022/11/03 03:33:44;;;;;;;19.40;5.15;;;;;;;;;;5094915;28;20048;-66
2022/11/03 03:36:14;;;;;;;22.13;4.32;;;;;;;;;;5095254;28;20039;-66
2022/11/03 03:38:42;;;;;;;21.63;5.07;;;;;;;;;;5094857;28;20043;-66
2022/11/03 03:41:10;;;;;;;23.73;5.43;;;;;;;;;;5095196;28;20126;-65
2022/11/03 03:43:36;;;;;;;20.90;4.50;;;;;;;;;;5094407;28;20055;-65
2022/11/03 03:46:07;;;;;;;18.90;5.07;;;;;;;;;;5094713;28;20091;-66
2022/11/03 03:48:33;;;;;;;17.70;5.10;;;;;;;;;;5095140;28;20425;-66
2022/11/03 03:51:00;;;;;;;22.40;4.70;;;;;;;;;;5095154;28;20371;-64
2022/11/03 03:53:27;;;;;;;24.92;5.05;;;;;;;;;;5094463;28;20047;-67
2022/11/03 03:55:53;;;;;;;19.08;4.88;;;;;;;;;;5094529;28;20083;-66
2022/11/03 03:58:20;;;;;;;20.15;4.72;;;;;;;;;;5094399;28;20044;-64
2022/11/03 04:00:46;;;;;;;24.08;5.13;;;;;;;;;;5093995;28;20559;-66
2022/11/03 04:03:16;;;;;;;20.05;4.95;;;;;;;;;;5093192;28;20507;-65
2022/11/03 04:05:43;;;;;;;17.83;4.40;;;;;;;;;;5094272;28;20483;-64
2022/11/03 04:08:09;;;;;;;18.75;4.53;;;;;;;;;;5094878;28;20040;-66
2022/11/03 04:10:35;;;;;;;21.23;4.20;;;;;;;;;;5094799;28;20078;-65
2022/11/03 04:24:00;;;;;;;20.20;4.55;;;;;;;;;;5094027;28;20055;-65
2022/11/03 04:26:27;;;;;;;19.17;4.55;;;;;;;;;;5093918;28;20052;-66
2022/11/03 04:28:53;;;;;;;21.63;4.82;;;;;;;;;;5093996;28;20052;-67
2022/11/03 04:31:20;;;;;;;21.42;4.75;;;;;;;;;;5094388;28;20472;-67
2022/11/03 04:33:46;;;;;;;17.98;4.57;;;;;;;;;;5093595;28;20374;-66
2022/11/03 04:36:19;;;;;;;26.85;5.57;;;;;;;;;;5093911;28;20066;-66
2022/11/03 04:38:46;;;;;;;20.70;5.18;;;;;;;;;;5093829;28;20062;-66
2022/11/03 04:41:15;;;;;;;24.40;5.05;;;;;;;;;;5093695;28;20159;-67
2022/11/03 04:43:42;;;;;;;20.02;4.55;;;;;;;;;;5093777;28;20052;-66
2022/11/03 04:46:10;;;;;;;15.77;4.00;;;;;;;;;;5093667;28;20052;-64
2022/11/03 04:48:37;;;;;;;22.15;4.85;;;;;;;;;;5093343;28;20411;-66
2022/11/03 04:51:10;;;;;;;28.25;5.25;;;;;;;;;;5094459;28;20089;-65
2022/11/03 04:53:36;;;;;;;23.85;4.80;;;;;;;;;;5094461;28;20123;-68
2022/11/03 04:56:13;;;;;;;15.45;3.95;;;;;;;;;;5094127;28;20048;-64
2022/11/03 04:58:39;;;;;;;22.15;5.03;;;;;;;;;;5127544;28;20475;-66
2022/11/03 05:01:10;;;;;;;19.50;4.40;;;;;;;;;;5092291;28;20127;-63
2022/11/03 05:03:37;;;;;;;23.60;4.68;;;;;;;;;;5093800;28;20048;-66
2022/11/03 05:06:12;;;;;;;19.73;4.60;;;;;;;;;;5093983;28;20044;-66
2022/11/03 05:08:38;;;;;;;20.00;4.78;;;;;;;;;;5093423;28;20136;-67
2022/11/03 05:11:21;;;;;;;15.70;4.43;;;;;;;;;;5093420;28;20040;-66
2022/11/03 05:13:47;;;;;;;20.30;4.57;;;;;;;;;;5093966;28;20051;-66
2022/11/03 05:16:13;;;;;;;18.83;4.75;;;;;;;;;;5096734;28;20431;-67
2022/11/03 05:18:42;;;;;;;20.90;4.43;;;;;;;;;;5098055;28;20130;-69
2022/11/03 05:21:15;;;;;;;21.70;4.68;;;;;;;;;;5097367;28;20482;-67
2022/11/03 05:23:44;;;;;;;18.95;4.75;;;;;;;;;;5097287;28;20495;-66
2022/11/03 05:26:19;;;;;;;17.48;4.22;;;;;;;;;;5097910;28;20047;-67
2022/11/03 05:28:51;;;;;;;21.60;5.13;;;;;;;;;;5095996;28;20074;-67
2022/11/03 05:31:23;;;;;;;21.23;4.35;;;;;;;;;;5097272;28;20172;-67
2022/11/03 05:33:50;;;;;;;22.80;4.70;;;;;;;;;;5097781;28;20371;-67
2022/11/03 05:36:19;;;;;;;20.30;4.93;;;;;;;;;;5097391;28;20052;-67
2022/11/03 05:38:45;;;;;;;20.73;4.60;;;;;;;;;;5097104;28;20083;-67
2022/11/03 05:41:19;;;;;;;24.02;4.80;;;;;;;;;;5097053;28;20043;-67
2022/11/03 05:43:46;;;;;;;17.58;4.68;;;;;;;;;;5097181;28;20056;-67
2022/11/03 05:46:14;;;;;;;18.90;4.72;;;;;;;;;;5096905;28;20048;-67
2022/11/03 05:48:43;;;;;;;18.63;4.72;;;;;;;;;;5096932;28;20051;-67
2022/11/03 05:51:13;;;;;;;18.08;4.63;;;;;;;;;;5096905;28;20047;-66
2022/11/03 05:53:43;;;;;;;18.38;4.45;;;;;;;;;;5097611;28;20047;-67
2022/11/03 05:56:13;;;;;;;18.35;4.18;;;;;;;;;;5097415;28;20055;-66
2022/11/03 05:58:40;;;;;;;16.88;4.35;;;;;;;;;;5095438;28;20073;-68
2022/11/03 06:01:16;;;;;;;20.20;4.93;;;;;;;;;;5096618;28;20044;-67
2022/11/03 06:03:42;;;;;;;19.13;4.35;;;;;;;;;;5097246;28;20160;-67
2022/11/03 06:06:34;;;;;;;18.65;4.28;;;;;;;;;;5097416;28;20084;-67
2022/11/03 06:09:10;;;;;;;18.80;4.70;;;;;;;;;;5095444;28;20056;-66
2022/11/03 06:11:36;;;;;;;21.50;5.30;;;;;;;;;;5096418;28;20059;-68
2022/11/03 06:14:12;;;;;;;21.55;4.47;;;;;;;;;;5096769;28;20048;-67
2022/11/03 06:16:42;;;;;;;20.60;4.65;;;;;;;;;;5096953;28;20388;-67
2022/11/03 06:19:16;;;;;;;16.88;4.28;;;;;;;;;;5097091;28;20044;-67
2022/11/03 06:21:43;;;;;;;21.98;5.43;;;;;;;;;;5096028;28;20043;-67
2022/11/03 06:24:09;;;;;;;17.42;5.00;;;;;;;;;;5096360;28;20040;-69
2022/11/03 06:26:35;;;;;;;22.42;5.13;;;;;;;;;;5094626;28;20486;-67
2022/11/03 06:29:01;;;;;;;20.58;4.28;;;;;;;;;;5095688;28;20419;-68
2022/11/03 06:31:27;;;;;;;;;;;;;;;;;;5096029;28;20122;-68
2022/11/03 06:33:54;;;;;;;17.65;4.38;;;;;;;;;;5095452;28;19974;-66
2022/11/03 06:36:22;;;;;;;23.13;4.45;;;;;;;;;;5094826;28;20102;-69
2022/11/03 06:39:00;;;;;;;16.20;4.13;;;;;;;;;;5094447;28;20040;-67
2022/11/03 06:41:28;;;;;;;17.65;5.22;;;;;;;;;;5095879;28;20053;-67
2022/11/03 06:43:55;;;;;;;16.08;4.55;;;;;;;;;;5095310;28;20510;-67
2022/11/03 06:46:21;;;;;;;;;;;;;;;;;;5095805;28;20096;-69
2022/11/03 06:48:47;;;;;;;19.83;4.47;;;;;;;;;;5095344;28;19924;-68
2022/11/03 06:51:13;;;;;;;;;;;;;;;;;;5096645;28;20044;-67
2022/11/03 06:53:40;;;;;;;18.40;4.45;;;;;;;;;;5095346;28;19920;-66
2022/11/03 06:56:12;;;;;;;16.92;4.68;;;;;;;;;;5094492;28;20083;-68
2022/11/03 06:58:38;;;;;;;21.38;4.70;;;;;;;;;;5095204;28;20141;-65
2022/11/03 07:01:21;;;;;;;17.00;4.70;;;;;;;;;;5093968;28;20040;-66
2022/11/03 07:03:48;;;;;;;15.02;4.57;;;;;;;;;;5095433;28;20043;-66
2022/11/03 07:06:25;;;;;;;21.73;5.35;;;;;;;;;;5094666;28;20478;-67
2022/11/03 07:08:53;;;;;;;21.40;5.35;;;;;;;;;;5096026;28;20044;-66
2022/11/03 07:11:23;;;;;;;17.05;4.68;;;;;;;;;;5095549;28;20416;-67
2022/11/03 07:13:51;;;;;;;20.48;4.95;;;;;;;;;;5094719;28;20051;-65
2022/11/03 07:16:23;;;;;;;16.10;4.57;;;;;;;;;;5094956;28;20048;-68
2022/11/03 07:18:49;;;;;;;19.60;4.63;;;;;;;;;;5094577;28;20069;-66
2022/11/03 07:21:24;;;;;;;17.52;5.13;;;;;;;;;;5094386;28;20040;-66
2022/11/03 07:23:51;;;;;;;16.63;4.47;;;;;;;;;;5094900;28;20044;-67
2022/11/03 07:26:18;;;;;;;22.83;5.68;;;;;;;;;;5094754;28;20404;-65
2022/11/03 07:28:47;;;;;;;19.55;4.90;;;;;;;;;;5094617;28;20048;-66
2022/11/03 07:31:15;;;;;;;21.38;5.05;;;;;;;;;;5094683;28;20040;-65
2022/11/03 07:33:41;;;;;;;22.58;5.55;;;;;;;;;;5094162;28;20048;-67
2022/11/03 07:36:10;;;;;;;18.73;5.18;;;;;;;;;;5094210;28;20538;-66
2022/11/03 07:38:37;;;;;;;22.70;5.68;;;;;;;;;;5094362;28;20052;-65
2022/11/03 07:41:03;;;;;;;18.90;5.68;;;;;;;;;;5094541;28;20132;-66
2022/11/03 07:43:37;;;;;;;14.95;4.60;;;;;;;;;;5094424;28;20084;-67
2022/11/03 07:46:04;;;;;;;20.17;5.55;;;;;;;;;;5094582;28;20048;-67
2022/11/03 07:48:36;;;;;;;21.77;4.68;;;;;;;;;;5094525;28;20094;-67
2022/11/03 07:51:21;;;;;;;21.73;4.95;;;;;;;;;;5094099;28;20496;-66
2022/11/03 07:53:48;;;;;;;17.17;4.95;;;;;;;;;;5094271;28;20114;-68
2022/11/03 07:56:20;;;;;;;16.60;4.78;;;;;;;;;;5093021;28;20040;-64
2022/11/03 07:58:47;;;;;;;17.08;4.95;;;;;;;;;;5094221;28;20048;-67
2022/11/03 08:01:24;;;;;;;19.17;5.53;;;;;;;;;;5093164;28;20086;-63
2022/11/03 08:03:51;;;;;;;21.38;5.38;;;;;;;;;;5094066;28;20109;-64
2022/11/03 08:06:17;;;;;;;20.92;5.43;;;;;;;;;;5093964;28;20059;-64
2022/11/03 08:08:43;;;;;;;20.08;5.43;;;;;;;;;;5094065;28;20055;-65
2022/11/03 08:11:09;;;;;;;22.50;5.47;;;;;;;;;;5093774;28;20048;-66
2022/11/03 08:13:35;;;;;;;20.50;5.85;;;;;;;;;;5093596;28;20051;-65
2022/11/03 08:16:01;;;;;;;22.30;5.30;;;;;;;;;;5093837;28;20048;-66
2022/11/03 08:18:27;;;;;;;19.38;5.43;;;;;;;;;;5093978;28;20138;-67
2022/11/03 08:20:53;;;;;;;21.92;6.07;;;;;;;;;;5093634;28;20139;-65
2022/11/03 08:23:19;;;;;;;18.35;4.80;;;;;;;;;;5093819;28;20429;-65
2022/11/03 08:25:46;;;;;;;20.77;5.32;;;;;;;;;;5093786;28;20484;-66
2022/11/03 08:28:12;;;;;;;20.25;4.80;;;;;;;;;;5093677;28;20134;-63
2022/11/03 08:30:38;;;;;;;18.25;4.65;;;;;;;;;;5093584;28;20047;-66
2022/11/03 08:33:04;;;;;;;19.83;5.40;;;;;;;;;;5093586;28;20125;-66
2022/11/03 08:35:30;;;;;;;20.63;4.43;;;;;;;;;;5093709;28;20043;-65
2022/11/03 08:37:56;;;;;;;18.17;5.00;;;;;;;;;;5093647;28;20400;-64
2022/11/03 08:40:22;;;;;;;18.65;5.93;;;;;;;;;;5094051;28;20047;-65
2022/11/03 08:42:49;;;;;;;20.42;4.70;;;;;;;;;;5092671;28;20052;-68
2022/11/03 08:45:15;;;;;;;17.50;5.07;;;;;;;;;;5092053;28;20100;-67
2022/11/03 08:47:41;;;;;;;16.13;4.90;;;;;;;;;;5093425;28;20040;-66
2022/11/03 08:50:07;;;;;;;22.35;5.22;;;;;;;;;;5091239;28;20113;-65
2022/11/03 08:52:33;;;;;;;25.10;5.50;;;;;;;;;;5093175;28;20122;-67
2022/11/03 08:54:59;;;;;;;20.05;5.25;;;;;;;;;;5090921;28;20050;-68
2022/11/03 08:57:25;;;;;;;17.80;4.93;;;;;;;;;;5092181;28;20488;-67
2022/11/03 08:59:51;;;;;;;18.48;4.85;;;;;;;;;;5092675;28;20036;-68
2022/11/03 09:02:18;;;;;;;18.25;5.22;;;;;;;;;;5093109;28;20051;-66
2022/11/03 09:04:44;;;;;;;15.90;5.25;;;;;;;;;;5093163;28;20341;-66
2022/11/03 09:07:10;;;;;;;20.60;5.57;;;;;;;;;;5092763;28;20044;-66
2022/11/03 09:09:36;;;;;;;19.38;5.18;;;;;;;;;;5091356;28;20086;-66
2022/11/03 09:12:02;;;;;;;21.13;5.38;;;;;;;;;;5093352;28;20074;-65
2022/11/03 09:14:28;;;;;;;18.55;5.13;;;;;;;;;;5093108;28;20136;-65
2022/11/03 09:16:54;;;;;;;20.63;5.68;;;;;;;;;;5092002;28;20065;-66
2022/11/03 09:19:20;;;;;;;20.83;5.35;;;;;;;;;;5093081;28;20044;-67
2022/11/03 09:21:46;;;;;;;16.67;4.85;;;;;;;;;;5092490;28;20396;-66
2022/11/03 09:24:12;;;;;;;18.23;5.32;;;;;;;;;;5091930;28;20132;-67
2022/11/03 09:26:38;;;;;;;19.90;5.20;;;;;;;;;;5092943;28;20480;-70
2022/11/03 09:29:04;;;;;;;19.60;5.25;;;;;;;;;;5093155;28;20496;-68
2022/11/03 09:31:30;;;;;;;20.15;5.50;;;;;;;;;;5092962;28;20044;-66
2022/11/03 09:33:57;;;;;;;19.92;4.88;;;;;;;;;;5093190;28;20495;-67
2022/11/03 09:36:23;;;;;;;15.50;4.55;;;;;;;;;;5092826;28;20082;-68
2022/11/03 09:38:49;;;;;;;25.38;5.90;;;;;;;;;;5092818;28;20044;-63
2022/11/03 09:41:18;;;;;;;16.75;4.95;;;;;;;;;;5074597;28;20395;-66
2022/11/03 09:43:45;;;;;;;16.70;4.90;;;;;;;;;;5092473;28;20506;-66
2022/11/03 09:46:12;;;;;;;18.90;4.95;;;;;;;;;;5092601;28;20095;-68
2022/11/03 09:48:38;;;;;;;20.83;5.40;;;;;;;;;;5092734;28;20080;-66
2022/11/03 09:51:04;;;;;;;21.60;5.30;;;;;;;;;;5092642;28;20040;-66
2022/11/03 09:53:30;;;;;;;19.45;5.00;;;;;;;;;;5092798;28;20052;-66
2022/11/03 09:55:56;;;;;;;18.38;5.20;;;;;;;;;;5093197;28;20048;-66
2022/11/03 09:58:22;;;;;;;20.08;4.60;;;;;;;;;;5092698;28;20044;-67
2022/11/03 10:00:48;;;;;;;19.50;4.97;;;;;;;;;;5092750;28;20040;-66
2022/11/03 10:03:16;;;;;;;23.17;5.35;;;;;;;;;;5096387;28;20192;-66
2022/11/03 10:05:46;;;;;;;20.45;5.32;;;;;;;;;;5096179;28;20101;-65
2022/11/03 10:08:21;;;;;;;17.58;5.43;;;;;;;;;;5095805;28;20392;-67
2022/11/03 10:10:48;;;;;;;17.20;4.72;;;;;;;;;;5095978;28;20048;-64
2022/11/03 10:13:21;;;;;;;18.67;5.03;;;;;;;;;;5096363;28;20388;-68
2022/11/03 10:15:47;;;;;;;19.73;5.05;;;;;;;;;;5096971;28;20047;-68
2022/11/03 10:18:14;;;;;;;22.58;5.00;;;;;;;;;;5096019;28;20071;-65
2022/11/03 10:20:40;;;;;;;21.63;5.68;;;;;;;;;;5096041;28;20047;-67
2022/11/03 10:23:07;;;;;;;17.52;4.75;;;;;;;;;;5096006;28;20048;-67
2022/11/03 10:25:34;;;;;;;17.48;5.32;;;;;;;;;;5096562;28;20098;-67
2022/11/03 10:28:09;;;;;;;20.35;5.20;;;;;;;;;;5095730;28;20055;-63
2022/11/03 10:30:47;;;;;;;18.55;4.70;;;;;;;;;;5095771;28;20123;-64
2022/11/03 10:33:29;;;;;;;20.70;5.25;;;;;;;;;;5095841;28;20044;-66
2022/11/03 10:35:57;;;;;;;18.42;4.65;;;;;;;;;;5096170;28;20070;-70
2022/11/03 10:38:27;;;;;;;17.17;4.70;;;;;;;;;;5095739;28;20480;-68
2022/11/03 10:40:54;;;;;;;18.63;5.35;;;;;;;;;;5096215;28;20070;-68
2022/11/03 10:43:20;;;;;;;19.10;4.78;;;;;;;;;;5094938;28;20484;-67
2022/11/03 10:45:48;;;;;;;18.65;5.13;;;;;;;;;;5095471;28;20058;-70
2022/11/03 10:48:14;;;;;;;19.25;4.70;;;;;;;;;;5095320;28;20098;-66
2022/11/03 10:50:41;;;;;;;23.08;5.15;;;;;;;;;;5095542;28;20044;-67
2022/11/03 10:53:20;;;;;;;19.25;5.22;;;;;;;;;;5094402;28;20507;-64
2022/11/03 10:55:47;;;;;;;20.73;5.15;;;;;;;;;;5096063;28;20052;-68
2022/11/03 10:58:13;;;;;;;16.80;4.80;;;;;;;;;;5095676;28;20040;-67
2022/11/03 11:00:42;;;;;;;20.75;4.72;;;;;;;;;;5095314;28;20044;-66
2022/11/03 11:03:08;;;;;;;19.73;4.82;;;;;;;;;;5094421;28;20048;-66
2022/11/03 11:05:34;;;;;;;;;;;;;;;;;;5095945;28;20044;-68
2022/11/03 11:08:01;;;;;;;17.58;4.85;;;;;;;;;;5095215;28;20382;-65
2022/11/03 11:10:28;;;;;;;19.95;4.72;;;;;;;;;;5094112;28;20055;-71
2022/11/03 11:13:05;;;;;;;18.27;4.80;;;;;;;;;;5094294;28;20421;-65
2022/11/03 11:15:41;;;;;;;19.05;4.80;;;;;;;;;;5095375;28;20383;-66
2022/11/03 11:18:08;;;;;;;15.65;4.25;;;;;;;;;;5094939;28;20055;-68
2022/11/03 11:20:34;;;;;;;;;;;;;;;;;;5095588;28;20047;-66
2022/11/03 11:23:20;;;;;;;21.08;5.00;;;;;;;;;;5095365;28;19920;-66
2022/11/03 11:26:04;;;;;;;16.90;4.40;;;;;;;;;;5095601;28;20498;-67
2022/11/03 11:28:30;;;;;;;15.88;4.18;;;;;;;;;;5094966;28;20055;-67
2022/11/03 11:30:57;;;;;;;15.32;4.30;;;;;;;;;;5094921;28;20365;-67
2022/11/03 11:33:24;;;;;;;16.95;4.57;;;;;;;;;;5094753;28;20098;-64
2022/11/03 11:35:50;;;;;;;20.27;4.80;;;;;;;;;;5094658;28;20043;-67
2022/11/03 11:38:34;;;;;;;14.77;4.20;;;;;;;;;;5094643;28;20048;-65
2022/11/03 11:41:00;;;;;;;14.73;3.88;;;;;;;;;;5093358;28;20046;-64
2022/11/03 11:43:27;;;;;;;17.80;4.60;;;;;;;;;;5094137;28;20506;-65
2022/11/03 11:46:11;;;;;;;12.63;4.05;;;;;;;;;;5092545;28;20408;-64
2022/11/03 11:48:38;;;;;;;17.67;4.35;;;;;;;;;;5094609;28;20430;-66
2022/11/03 11:51:08;;;;;;;13.32;4.10;;;;;;;;;;5095011;28;20058;-66
2022/11/03 11:53:39;;;;;;;16.13;4.18;;;;;;;;;;5094473;28;20468;-65
2022/11/03 11:56:08;;;;;;;15.77;4.15;;;;;;;;;;5094367;28;20044;-68
2022/11/03 11:58:45;;;;;;;15.23;3.95;;;;;;;;;;5094118;28;20088;-66
2022/11/03 12:01:22;;;;;;;19.50;4.05;;;;;;;;;;5094037;28;20048;-66
2022/11/03 12:03:49;;;;;;;14.57;4.00;;;;;;;;;;5093966;28;20127;-65
2022/11/03 12:06:15;;;;;;;16.33;4.15;;;;;;;;;;5094083;28;20442;-66
2022/11/03 12:08:42;;;;;;;19.23;4.30;;;;;;;;;;5076050;28;20059;-65
2022/11/03 12:11:09;;;;;;;17.67;4.75;;;;;;;;;;5092513;28;20051;-68
2022/11/03 12:13:38;;;;;;;18.45;4.47;;;;;;;;;;5094253;28;20044;-66
2022/11/03 12:16:04;;;;;;;14.57;3.85;;;;;;;;;;5094093;28;20052;-67
2022/11/03 12:18:30;;;;;;;16.45;3.97;;;;;;;;;;5094591;28;20040;-67
2022/11/03 12:20:57;;;;;;;12.43;3.83;;;;;;;;;;5093829;28;20080;-67
2022/11/03 12:23:23;;;;;;;;;;;;;;;;;;5094527;28;20048;-68
2022/11/03 12:25:49;;;;;;;15.68;3.67;;;;;;;;;;5092806;28;19920;-66
2022/11/03 12:28:29;;;;;;;17.38;3.67;;;;;;;;;;5093766;28;20083;-67
2022/11/03 12:30:55;;;;;;;16.50;4.35;;;;;;;;;;5093068;28;20044;-68
2022/11/03 12:33:21;;;;;;;15.27;4.07;;;;;;;;;;5092895;28;20105;-64
2022/11/03 12:35:47;;;;;;;15.50;3.92;;;;;;;;;;5093335;28;20044;-66
2022/11/03 12:38:13;;;;;;;13.32;3.83;;;;;;;;;;5092867;28;20135;-63
2022/11/03 12:40:39;;;;;;;14.30;3.90;;;;;;;;;;5093122;28;20472;-64
2022/11/03 12:43:06;;;;;;;15.07;4.03;;;;;;;;;;5091666;28;20572;-67
2022/11/03 12:45:32;;;;;;;17.10;4.07;;;;;;;;;;5093023;28;20092;-70
2022/11/03 12:47:58;;;;;;;12.85;3.95;;;;;;;;;;5093723;28;20048;-68
2022/11/03 12:50:24;;;;;;;13.60;3.85;;;;;;;;;;5093334;28;20552;-66
2022/11/03 12:52:50;;;;;;;15.77;3.65;;;;;;;;;;5092712;28;20488;-67
2022/11/03 12:55:16;;;;;;;16.95;3.50;;;;;;;;;;5093009;28;20055;-69
2022/11/03 12:57:44;;;;;;;14.07;3.60;;;;;;;;;;5093115;28;20051;-65
2022/11/03 13:00:11;;;;;;;14.88;4.20;;;;;;;;;;5092823;28;20048;-64
2022/11/03 13:02:37;;;;;;;14.60;4.00;;;;;;;;;;5092960;28;20052;-66
2022/11/03 13:05:03;;;;;;;;;;;;;;;;;;5093193;28;20047;-68
2022/11/03 13:07:29;;;;;;;13.85;3.38;;;;;;;;;;5092615;28;19920;-64
2022/11/03 13:09:55;;;;;;;10.95;3.38;;;;;;;;;;5093072;28;20115;-66
2022/11/03 13:12:31;;;;;;;13.82;3.80;;;;;;;;;;5092960;28;20398;-65
2022/11/03 13:15:01;;;;;;;14.38;3.80;;;;;;;;;;5092774;28;20080;-65
2022/11/03 13:17:27;;;;;;;13.45;3.67;;;;;;;;;;5092698;28;20051;-64
2022/11/03 13:19:53;;;;;;;;;;;;;;;;;;5093768;28;20368;-65
2022/11/03 13:22:19;;;;;;;12.20;3.30;;;;;;;;;;5092880;28;19920;-66
2022/11/03 13:24:45;;;;;;;22.30;4.00;;;;;;;;;;5092584;28;20504;-66
2022/11/03 13:27:12;;;;;;;14.40;4.22;;;;;;;;;;5093860;28;20383;-67
2022/11/03 13:29:38;;;;;;;14.75;3.53;;;;;;;;;;5092643;28;20414;-65
2022/11/03 13:32:04;;;;;;;17.88;4.90;;;;;;;;;;5092556;28;20048;-64
2022/11/03 13:34:30;;;;;;;;;;;;;;;;;;5092973;28;20044;-64
2022/11/03 13:36:57;;;;;;;12.63;3.80;;;;;;;;;;5096050;28;20352;-68
2022/11/03 13:39:23;;;;;;;14.15;3.83;;;;;;;;;;5095260;28;20135;-69
2022/11/03 13:41:49;;;;;;;12.85;3.80;;;;;;;;;;5095906;28;20087;-66
2022/11/03 13:44:15;;;;;;;;;;;;;;;;;;5096173;28;20083;-66
2022/11/03 13:46:41;;;;;;;17.27;3.80;;;;;;;;;;5096710;28;20348;-68
2022/11/03 13:49:07;;;;;;;12.90;3.30;;;;;;;;;;5096279;28;20048;-68
2022/11/03 13:51:33;;;;;;;15.82;3.42;;;;;;;;;;5095893;28;20135;-65
2022/11/03 13:54:00;;;;;;;12.75;3.60;;;;;;;;;;5096293;28;20047;-68
2022/11/03 13:56:26;;;;;;;12.93;3.50;;;;;;;;;;5096191;28;20104;-68
2022/11/03 13:58:52;;;;;;;16.95;4.13;;;;;;;;;;5096656;28;20052;-69
2022/11/03 14:01:18;;;;;;;14.57;4.32;;;;;;;;;;5096422;28;20047;-69
2022/11/03 14:03:44;;;;;;;;;;;;;;;;;;5096131;28;20070;-66
2022/11/03 14:06:10;;;;;;;15.27;4.10;;;;;;;;;;5095552;28;20360;-67
2022/11/03 14:08:36;;;;;;;18.63;5.22;;;;;;;;;;5096593;28;20137;-67
2022/11/03 14:12:29;;;;;;;12.75;3.88;;;;;;;;;;5096565;28;20407;-66
2022/11/03 14:13:48;;;;;;;14.50;3.85;;;;;;;;;;5095573;28;20044;-66
2022/11/03 14:16:14;;;;;;;14.98;3.78;;;;;;;;;;5096359;28;20086;-67
2022/11/03 14:18:40;;;;;;;13.25;3.90;;;;;;;;;;5096291;28;20368;-68
2022/11/03 14:21:06;;;;;;;13.68;4.15;;;;;;;;;;5095930;28;20050;-67
2022/11/03 14:23:32;;;;;;;13.10;4.10;;;;;;;;;;5096382;28;20048;-68
2022/11/03 14:25:58;;;;;;;14.40;3.80;;;;;;;;;;5096035;28;20095;-70
2022/11/03 14:28:24;;;;;;;16.52;4.25;;;;;;;;;;5096139;28;20044;-68
2022/11/03 14:30:50;;;;;;;14.43;3.70;;;;;;;;;;5095842;28;20040;-68
2022/11/03 14:33:16;;;;;;;13.55;3.60;;;;;;;;;;5095646;28;20040;-66
2022/11/03 14:35:42;;;;;;;17.30;3.78;;;;;;;;;;5095769;28;20123;-67
2022/11/03 14:38:08;;;;;;;14.93;3.42;;;;;;;;;;5095496;28;20105;-68
2022/11/03 14:43:19;;;;;;;12.25;3.53;;;;;;;;;;5095584;28;20044;-69
2022/11/03 14:45:45;;;;;;;13.35;3.60;;;;;;;;;;5095777;28;20384;-68
2022/11/03 14:48:11;;;;;;;15.77;3.97;;;;;;;;;;5094159;28;20100;-68
2022/11/03 14:50:37;;;;;;;14.02;4.30;;;;;;;;;;5095060;28;20102;-67
2022/11/03 14:53:03;;;;;;;11.70;3.60;;;;;;;;;;5095645;28;20044;-69
2022/11/03 14:55:29;;;;;;;13.70;4.03;;;;;;;;;;5094678;28;20058;-68
2022/11/03 14:57:55;;;;;;;16.60;5.28;;;;;;;;;;5094738;28;20047;-67
2022/11/03 15:00:21;;;;;;;17.27;6.00;;;;;;;;;;5094003;28;20043;-70